createdAt,value
2022-11-18T00:00:58.071Z,0.70
2022-11-18T00:01:58.137Z,0.70
2022-11-18T00:02:58.052Z,0.70
2022-11-18T00:03:58.047Z,0.70
2022-11-18T00:04:58.033Z,0.80
2022-11-18T00:05:58.032Z,0.70
2022-11-18T00:06:58.024Z,0.70
2022-11-18T00:07:58.015Z,0.60
2022-11-18T00:08:57.987Z,0.80
2022-11-18T00:09:58.016Z,0.80
2022-11-18T00:10:57.956Z,0.90
2022-11-18T00:11:57.983Z,0.70
2022-11-18T00:12:57.935Z,0.70
2022-11-18T00:13:57.942Z,0.80
2022-11-18T00:14:57.960Z,0.70
2022-11-18T00:15:57.942Z,0.70
2022-11-18T00:16:57.884Z,0.60
2022-11-18T00:17:57.886Z,0.60
2022-11-18T00:18:57.863Z,0.60
2022-11-18T00:19:57.987Z,0.80
2022-11-18T00:20:57.857Z,0.60
2022-11-18T00:21:57.834Z,0.80
2022-11-18T00:22:57.811Z,0.60
2022-11-18T00:23:57.811Z,0.60
2022-11-18T00:24:57.813Z,0.80
2022-11-18T00:25:57.820Z,0.60
2022-11-18T00:26:57.763Z,0.60
2022-11-18T00:27:57.776Z,0.70
2022-11-18T00:28:57.762Z,0.60
2022-11-18T00:29:57.760Z,0.70
2022-11-18T00:30:57.746Z,0.70
2022-11-18T00:31:57.729Z,0.60
2022-11-18T00:32:57.696Z,0.70
2022-11-18T00:33:57.702Z,0.60
2022-11-18T00:34:57.687Z,0.90
2022-11-18T00:35:57.698Z,0.70
2022-11-18T00:36:57.658Z,0.70
2022-11-18T00:37:57.690Z,0.60
2022-11-18T00:38:57.618Z,0.70
2022-11-18T00:39:57.651Z,0.70
2022-11-18T00:40:57.643Z,0.70
2022-11-18T00:41:57.617Z,0.50
2022-11-18T00:42:57.591Z,0.60
2022-11-18T00:43:57.590Z,0.70
2022-11-18T00:44:57.558Z,0.80
2022-11-18T00:45:57.595Z,0.60
2022-11-18T00:46:57.547Z,0.60
2022-11-18T00:47:57.550Z,0.60
2022-11-18T00:48:57.507Z,0.80
2022-11-18T00:49:57.510Z,0.70
2022-11-18T00:50:57.510Z,0.70
2022-11-18T00:51:57.498Z,0.60
2022-11-18T00:52:57.463Z,0.80
2022-11-18T00:53:57.486Z,0.70
2022-11-18T00:54:57.449Z,0.70
2022-11-18T00:55:57.461Z,0.70
2022-11-18T00:56:57.421Z,0.60
2022-11-18T00:57:57.448Z,0.70
2022-11-18T00:58:57.402Z,0.70
2022-11-18T00:59:57.406Z,0.70
2022-11-18T01:00:57.468Z,0.70
2022-11-18T01:01:57.381Z,0.70
2022-11-18T01:02:57.350Z,0.70
2022-11-18T01:03:57.382Z,0.80
2022-11-18T01:04:57.333Z,0.70
2022-11-18T01:05:57.373Z,0.60
2022-11-18T01:06:57.363Z,0.60
2022-11-18T01:07:57.336Z,0.60
2022-11-18T01:08:57.291Z,0.80
2022-11-18T01:09:57.320Z,0.70
2022-11-18T01:10:57.335Z,0.60
2022-11-18T01:11:57.256Z,0.60
2022-11-18T01:12:57.245Z,0.70
2022-11-18T01:13:57.245Z,0.60
2022-11-18T01:14:57.225Z,0.80
2022-11-18T01:15:57.246Z,0.60
2022-11-18T01:16:57.260Z,0.70
2022-11-18T01:17:57.213Z,0.60
2022-11-18T01:18:57.184Z,0.70
2022-11-18T01:19:57.188Z,0.70
2022-11-18T01:20:57.147Z,0.70
2022-11-18T01:21:57.182Z,0.60
2022-11-18T01:22:57.120Z,0.80
2022-11-18T01:23:57.124Z,0.60
2022-11-18T01:24:57.105Z,0.70
2022-11-18T01:25:57.096Z,0.60
2022-11-18T01:26:57.080Z,0.60
2022-11-18T01:27:57.111Z,0.60
2022-11-18T01:28:57.051Z,0.60
2022-11-18T01:29:57.062Z,0.60
2022-11-18T01:30:57.032Z,0.70
2022-11-18T01:32:24.904Z,0.60
2022-11-18T01:32:58.003Z,0.70
2022-11-18T01:33:57.007Z,0.70
2022-11-18T01:34:56.984Z,0.60
2022-11-18T01:35:56.983Z,0.70
2022-11-18T01:36:56.984Z,0.60
2022-11-18T01:37:56.987Z,0.70
2022-11-18T01:38:56.950Z,0.60
2022-11-18T01:39:56.943Z,0.80
2022-11-18T01:40:56.913Z,0.80
2022-11-18T01:41:56.912Z,0.70
2022-11-18T01:42:56.922Z,0.80
2022-11-18T01:43:56.908Z,0.80
2022-11-18T01:44:56.861Z,0.70
2022-11-18T01:45:56.864Z,0.80
2022-11-18T01:46:56.841Z,0.60
2022-11-18T01:47:56.862Z,0.90
2022-11-18T01:48:56.860Z,0.60
2022-11-18T01:49:56.846Z,0.70
2022-11-18T01:50:56.795Z,0.70
2022-11-18T01:51:56.798Z,0.80
2022-11-18T01:52:56.801Z,0.60
2022-11-18T01:53:56.801Z,0.60
2022-11-18T01:54:56.754Z,0.70
2022-11-18T01:55:56.756Z,0.70
2022-11-18T01:56:56.741Z,1.00
2022-11-18T01:57:56.736Z,0.60
2022-11-18T01:58:56.719Z,0.90
2022-11-18T01:59:56.708Z,0.80
2022-11-18T02:00:56.718Z,0.80
2022-11-18T02:01:59.715Z,0.90
2022-11-18T02:02:56.676Z,0.70
2022-11-18T02:03:56.676Z,0.70
2022-11-18T02:04:56.650Z,0.70
2022-11-18T02:05:56.651Z,0.80
2022-11-18T02:06:56.683Z,0.80
2022-11-18T02:07:56.624Z,0.90
2022-11-18T02:08:56.586Z,0.80
2022-11-18T02:09:56.605Z,0.70
2022-11-18T02:10:56.580Z,0.70
2022-11-18T02:11:56.626Z,0.90
2022-11-18T02:12:56.539Z,0.70
2022-11-18T02:13:56.544Z,0.70
2022-11-18T02:14:56.536Z,0.70
2022-11-18T02:15:56.542Z,0.70
2022-11-18T02:16:56.509Z,0.70
2022-11-18T02:17:56.505Z,0.70
2022-11-18T02:18:56.488Z,0.70
2022-11-18T02:19:56.507Z,0.70
2022-11-18T02:20:56.499Z,0.70
2022-11-18T02:21:56.470Z,0.60
2022-11-18T02:22:56.424Z,0.80
2022-11-18T02:23:56.542Z,0.90
2022-11-18T02:24:56.423Z,0.80
2022-11-18T02:25:56.420Z,0.80
2022-11-18T02:26:56.383Z,0.70
2022-11-18T02:27:56.393Z,0.80
2022-11-18T02:28:56.371Z,0.80
2022-11-18T02:29:56.356Z,0.70
2022-11-18T02:30:56.357Z,0.70
2022-11-18T02:31:56.332Z,0.90
2022-11-18T02:32:56.329Z,0.70
2022-11-18T02:33:56.333Z,0.80
2022-11-18T02:34:56.295Z,0.70
2022-11-18T02:35:56.355Z,1.00
2022-11-18T02:36:56.263Z,0.80
2022-11-18T02:37:56.275Z,0.90
2022-11-18T02:38:56.254Z,1.00
2022-11-18T02:39:56.428Z,0.80
2022-11-18T02:40:56.240Z,0.90
2022-11-18T02:41:56.232Z,0.90
2022-11-18T02:42:56.211Z,1.00
2022-11-18T02:43:56.200Z,0.90
2022-11-18T02:44:56.197Z,0.80
2022-11-18T02:45:56.202Z,1.00
2022-11-18T02:46:56.146Z,0.70
2022-11-18T02:47:56.155Z,0.80
2022-11-18T02:48:56.127Z,0.80
2022-11-18T02:49:56.136Z,1.00
2022-11-18T02:50:56.107Z,1.00
2022-11-18T02:51:56.142Z,1.00
2022-11-18T02:52:56.078Z,0.90
2022-11-18T02:53:56.079Z,0.90
2022-11-18T02:54:56.088Z,0.90
2022-11-18T02:55:56.088Z,0.80
2022-11-18T02:56:56.040Z,0.90
2022-11-18T02:57:56.042Z,1.00
2022-11-18T02:58:56.018Z,0.90
2022-11-18T02:59:56.016Z,0.90
2022-11-18T03:00:56.018Z,1.00
2022-11-18T03:01:56.027Z,0.90
2022-11-18T03:02:55.957Z,0.90
2022-11-18T03:03:55.968Z,0.90
2022-11-18T03:04:55.942Z,0.80
2022-11-18T03:05:55.967Z,1.00
2022-11-18T03:06:55.951Z,0.80
2022-11-18T03:07:55.943Z,1.00
2022-11-18T03:08:55.894Z,1.30
2022-11-18T03:09:55.899Z,0.90
2022-11-18T03:10:55.898Z,1.00
2022-11-18T03:11:55.886Z,0.90
2022-11-18T03:12:55.852Z,0.90
2022-11-18T03:13:55.849Z,1.10
2022-11-18T03:14:55.823Z,1.00
2022-11-18T03:15:55.840Z,0.90
2022-11-18T03:16:55.805Z,0.80
2022-11-18T03:17:55.808Z,1.10
2022-11-18T03:18:55.779Z,0.80
2022-11-18T03:19:55.773Z,0.90
2022-11-18T03:20:55.771Z,0.90
2022-11-18T03:21:55.760Z,0.90
2022-11-18T03:22:55.742Z,1.00
2022-11-18T03:23:55.745Z,0.90
2022-11-18T03:24:55.708Z,0.90
2022-11-18T03:25:55.712Z,0.80
2022-11-18T03:26:55.699Z,1.00
2022-11-18T03:27:55.690Z,0.90
2022-11-18T03:28:55.678Z,0.80
2022-11-18T03:29:55.666Z,0.80
2022-11-18T03:30:55.643Z,1.10
2022-11-18T03:31:55.661Z,1.10
2022-11-18T03:32:55.624Z,1.00
2022-11-18T03:33:55.633Z,0.80
2022-11-18T03:34:55.589Z,1.10
2022-11-18T03:35:55.588Z,0.70
2022-11-18T03:36:59.722Z,0.90
2022-11-18T03:37:56.573Z,0.90
2022-11-18T03:38:55.581Z,1.10
2022-11-18T03:39:55.547Z,0.80
2022-11-18T03:40:55.554Z,0.90
2022-11-18T03:41:55.511Z,0.90
2022-11-18T03:42:55.541Z,0.80
2022-11-18T03:43:55.491Z,0.80
2022-11-18T03:44:55.501Z,0.80
2022-11-18T03:45:55.464Z,0.90
2022-11-18T03:46:55.487Z,0.80
2022-11-18T03:47:55.456Z,0.90
2022-11-18T03:48:55.453Z,0.80
2022-11-18T03:49:55.423Z,0.90
2022-11-18T03:50:55.415Z,0.90
2022-11-18T03:51:55.396Z,0.80
2022-11-18T03:52:55.401Z,1.10
2022-11-18T03:53:55.385Z,1.00
2022-11-18T03:54:55.392Z,0.80
2022-11-18T03:55:55.355Z,0.90
2022-11-18T03:56:55.378Z,0.90
2022-11-18T03:57:55.464Z,0.90
2022-11-18T03:58:55.350Z,0.90
2022-11-18T03:59:55.319Z,1.00
2022-11-18T04:00:55.308Z,0.80
2022-11-18T04:01:55.320Z,1.00
2022-11-18T04:02:55.300Z,0.80
2022-11-18T04:03:55.284Z,0.80
2022-11-18T04:04:55.269Z,0.70
2022-11-18T04:05:55.242Z,0.70
2022-11-18T04:06:55.278Z,0.80
2022-11-18T04:07:55.228Z,0.80
2022-11-18T04:08:55.233Z,0.90
2022-11-18T04:09:55.193Z,0.60
2022-11-18T04:10:55.194Z,0.80
2022-11-18T04:11:55.168Z,0.80
2022-11-18T04:12:55.180Z,0.80
2022-11-18T04:13:55.166Z,0.60
2022-11-18T04:14:55.149Z,0.80
2022-11-18T04:15:55.108Z,0.90
2022-11-18T04:16:55.127Z,0.60
2022-11-18T04:17:55.102Z,0.60
2022-11-18T04:18:55.126Z,0.90
2022-11-18T04:19:55.078Z,0.90
2022-11-18T04:20:55.095Z,0.70
2022-11-18T04:21:55.057Z,0.80
2022-11-18T04:22:55.064Z,0.80
2022-11-18T04:23:55.035Z,0.70
2022-11-18T04:24:55.056Z,0.70
2022-11-18T04:25:55.005Z,0.80
2022-11-18T04:26:55.005Z,0.80
2022-11-18T04:27:54.975Z,0.80
2022-11-18T04:28:54.975Z,0.90
2022-11-18T04:29:54.961Z,0.70
2022-11-18T04:30:54.997Z,1.00
2022-11-18T04:31:54.935Z,0.80
2022-11-18T04:32:54.938Z,0.80
2022-11-18T04:33:54.932Z,1.10
2022-11-18T04:34:54.916Z,0.80
2022-11-18T04:35:54.899Z,0.80
2022-11-18T04:36:54.898Z,0.80
2022-11-18T04:37:54.870Z,0.80
2022-11-18T04:38:54.866Z,0.90
2022-11-18T04:39:54.837Z,0.80
2022-11-18T04:40:54.875Z,0.90
2022-11-18T04:41:54.818Z,0.80
2022-11-18T04:42:54.827Z,0.80
2022-11-18T04:43:54.786Z,0.90
2022-11-18T04:44:54.801Z,0.80
2022-11-18T04:45:54.780Z,0.80
2022-11-18T04:46:54.822Z,0.90
2022-11-18T04:47:58.846Z,0.70
2022-11-18T04:48:55.754Z,1.00
2022-11-18T04:49:54.727Z,0.90
2022-11-18T04:50:54.728Z,0.70
2022-11-18T04:51:54.708Z,0.90
2022-11-18T04:52:54.731Z,0.90
2022-11-18T04:53:54.678Z,1.00
2022-11-18T04:54:54.687Z,0.80
2022-11-18T04:55:54.656Z,1.00
2022-11-18T04:56:54.676Z,0.80
2022-11-18T04:57:54.661Z,1.00
2022-11-18T04:58:54.651Z,0.90
2022-11-18T04:59:54.616Z,1.00
2022-11-18T05:00:54.652Z,0.90
2022-11-18T05:01:54.587Z,0.90
2022-11-18T05:02:54.605Z,0.80
2022-11-18T05:03:54.584Z,0.80
2022-11-18T05:04:54.564Z,0.90
2022-11-18T05:05:54.538Z,0.80
2022-11-18T05:06:54.607Z,0.90
2022-11-18T05:07:54.527Z,1.00
2022-11-18T05:08:54.535Z,0.90
2022-11-18T05:09:54.521Z,0.80
2022-11-18T05:10:54.506Z,0.70
2022-11-18T05:11:54.465Z,0.80
2022-11-18T05:12:54.480Z,0.70
2022-11-18T05:13:54.482Z,0.90
2022-11-18T05:14:54.460Z,0.90
2022-11-18T05:15:54.418Z,0.90
2022-11-18T05:16:54.419Z,0.90
2022-11-18T05:17:54.401Z,0.80
2022-11-18T05:18:54.408Z,0.90
2022-11-18T05:19:54.396Z,1.10
2022-11-18T05:20:54.385Z,1.00
2022-11-18T05:21:54.354Z,0.80
2022-11-18T05:22:54.361Z,0.70
2022-11-18T05:23:54.331Z,0.90
2022-11-18T05:24:54.328Z,1.00
2022-11-18T05:25:59.608Z,1.00
2022-11-18T05:26:55.317Z,1.00
2022-11-18T05:27:54.286Z,0.90
2022-11-18T05:28:54.295Z,1.00
2022-11-18T05:29:54.265Z,1.10
2022-11-18T05:30:54.282Z,1.10
2022-11-18T05:31:54.238Z,1.00
2022-11-18T05:32:54.245Z,1.00
2022-11-18T05:33:54.213Z,1.10
2022-11-18T05:34:54.214Z,1.20
2022-11-18T05:35:55.328Z,0.90
2022-11-18T05:36:54.197Z,0.90
2022-11-18T05:37:54.175Z,1.00
2022-11-18T05:38:54.177Z,1.00
2022-11-18T05:39:54.156Z,1.00
2022-11-18T05:40:54.164Z,0.90
2022-11-18T05:41:54.124Z,1.00
2022-11-18T05:42:54.130Z,1.10
2022-11-18T05:43:54.096Z,0.90
2022-11-18T05:44:58.049Z,1.00
2022-11-18T05:45:54.104Z,0.90
2022-11-18T05:46:54.091Z,1.00
2022-11-18T05:47:54.060Z,1.20
2022-11-18T05:48:54.076Z,1.00
2022-11-18T05:49:54.032Z,1.00
2022-11-18T05:50:54.060Z,0.90
2022-11-18T05:51:54.009Z,1.10
2022-11-18T05:52:54.026Z,0.90
2022-11-18T05:53:53.972Z,1.10
2022-11-18T05:54:53.992Z,1.10
2022-11-18T05:55:53.981Z,1.10
2022-11-18T05:56:53.960Z,1.10
2022-11-18T05:57:53.950Z,1.10
2022-11-18T05:58:53.963Z,1.10
2022-11-18T05:59:53.909Z,1.10
2022-11-18T06:00:53.946Z,1.20
2022-11-18T06:01:53.913Z,1.10
2022-11-18T06:02:53.916Z,1.10
2022-11-18T06:03:53.864Z,1.30
2022-11-18T06:04:53.882Z,1.20
2022-11-18T06:05:53.890Z,1.30
2022-11-18T06:06:53.948Z,1.00
2022-11-18T06:07:53.826Z,1.20
2022-11-18T06:08:53.822Z,0.90
2022-11-18T06:09:53.801Z,1.20
2022-11-18T06:10:53.811Z,1.00
2022-11-18T06:11:53.781Z,1.00
2022-11-18T06:12:53.776Z,1.00
2022-11-18T06:13:53.744Z,1.30
2022-11-18T06:14:53.751Z,1.00
2022-11-18T06:15:53.740Z,1.00
2022-11-18T06:16:53.748Z,1.00
2022-11-18T06:17:53.706Z,1.10
2022-11-18T06:18:53.718Z,0.90
2022-11-18T06:19:53.677Z,1.00
2022-11-18T06:20:53.697Z,0.80
2022-11-18T06:21:53.689Z,1.00
2022-11-18T06:22:53.680Z,0.90
2022-11-18T06:23:53.630Z,1.10
2022-11-18T06:24:53.649Z,0.80
2022-11-18T06:25:53.632Z,0.90
2022-11-18T06:26:53.613Z,0.90
2022-11-18T06:27:53.587Z,1.00
2022-11-18T06:28:53.619Z,1.00
2022-11-18T06:29:53.568Z,0.90
2022-11-18T06:30:53.575Z,0.90
2022-11-18T06:31:53.556Z,0.80
2022-11-18T06:32:53.547Z,1.00
2022-11-18T06:33:53.523Z,0.80
2022-11-18T06:34:53.525Z,0.90
2022-11-18T06:35:53.515Z,0.80
2022-11-18T06:36:53.492Z,0.80
2022-11-18T06:37:53.495Z,0.80
2022-11-18T06:38:53.480Z,0.90
2022-11-18T06:39:53.458Z,0.80
2022-11-18T06:40:53.452Z,1.10
2022-11-18T06:41:53.451Z,0.80
2022-11-18T06:42:53.424Z,0.80
2022-11-18T06:43:53.394Z,1.00
2022-11-18T06:44:53.434Z,0.90
2022-11-18T06:45:53.390Z,1.10
2022-11-18T06:46:53.375Z,1.10
2022-11-18T06:47:53.364Z,0.90
2022-11-18T06:48:53.377Z,0.90
2022-11-18T06:49:53.327Z,1.00
2022-11-18T06:50:53.371Z,1.20
2022-11-18T06:51:53.308Z,1.30
2022-11-18T06:52:53.315Z,1.10
2022-11-18T06:53:53.306Z,1.10
2022-11-18T06:54:53.297Z,1.20
2022-11-18T06:55:53.314Z,1.30
2022-11-18T06:56:53.294Z,1.20
2022-11-18T06:57:53.274Z,1.20
2022-11-18T06:58:53.247Z,1.20
2022-11-18T06:59:55.498Z,1.20
2022-11-18T07:00:54.299Z,1.10
2022-11-18T07:01:53.328Z,1.40
2022-11-18T07:02:53.209Z,1.30
2022-11-18T07:03:53.205Z,1.50
2022-11-18T07:04:53.176Z,1.40
2022-11-18T07:05:53.184Z,1.30
2022-11-18T07:06:53.229Z,1.20
2022-11-18T07:07:53.209Z,1.50
2022-11-18T07:08:53.136Z,1.40
2022-11-18T07:09:53.105Z,1.30
2022-11-18T07:10:53.140Z,1.30
2022-11-18T07:11:53.107Z,1.40
2022-11-18T07:12:53.097Z,1.50
2022-11-18T07:13:53.065Z,1.30
2022-11-18T07:14:53.068Z,1.30
2022-11-18T07:15:53.049Z,1.30
2022-11-18T07:16:53.053Z,1.50
2022-11-18T07:17:53.019Z,1.60
2022-11-18T07:18:53.041Z,1.40
2022-11-18T07:19:52.987Z,1.60
2022-11-18T07:20:53.013Z,1.50
2022-11-18T07:21:52.977Z,1.60
2022-11-18T07:22:52.986Z,1.60
2022-11-18T07:23:52.978Z,1.70
2022-11-18T07:24:52.950Z,1.80
2022-11-18T07:25:52.930Z,1.40
2022-11-18T07:26:52.946Z,1.50
2022-11-18T07:27:52.912Z,1.80
2022-11-18T07:28:52.888Z,1.50
2022-11-18T07:29:52.872Z,1.50
2022-11-18T07:30:52.896Z,1.80
2022-11-18T07:31:52.838Z,1.70
2022-11-18T07:32:52.845Z,1.50
2022-11-18T07:33:52.829Z,1.70
2022-11-18T07:34:52.844Z,1.50
2022-11-18T07:35:52.807Z,1.60
2022-11-18T07:36:52.831Z,1.50
2022-11-18T07:37:52.798Z,1.70
2022-11-18T07:38:52.819Z,1.80
2022-11-18T07:39:52.772Z,1.70
2022-11-18T07:40:52.783Z,1.60
2022-11-18T07:41:52.736Z,1.80
2022-11-18T07:42:52.757Z,1.80
2022-11-18T07:43:57.581Z,1.70
2022-11-18T07:44:53.735Z,1.70
2022-11-18T07:45:52.689Z,1.50
2022-11-18T07:46:52.691Z,1.70
2022-11-18T07:47:52.664Z,1.50
2022-11-18T07:48:52.660Z,1.50
2022-11-18T07:49:52.645Z,1.50
2022-11-18T07:50:52.661Z,1.30
2022-11-18T07:51:52.623Z,1.50
2022-11-18T07:52:52.600Z,1.40
2022-11-18T07:53:52.598Z,1.30
2022-11-18T07:54:52.580Z,1.50
2022-11-18T07:55:52.629Z,1.80
2022-11-18T07:56:52.590Z,1.40
2022-11-18T07:57:52.592Z,1.30
2022-11-18T07:58:52.541Z,1.60
2022-11-18T07:59:52.523Z,1.30
2022-11-18T08:00:52.525Z,1.50
2022-11-18T08:01:52.556Z,1.40
2022-11-18T08:02:52.490Z,1.40
2022-11-18T08:03:52.504Z,1.30
2022-11-18T08:04:52.522Z,1.60
2022-11-18T08:05:52.489Z,1.50
2022-11-18T08:06:52.486Z,1.50
2022-11-18T08:07:52.461Z,1.30
2022-11-18T08:08:52.426Z,1.30
2022-11-18T08:09:52.404Z,1.30
2022-11-18T08:10:52.411Z,1.80
2022-11-18T08:11:52.418Z,1.50
2022-11-18T08:12:52.382Z,1.30
2022-11-18T08:13:52.393Z,1.50
2022-11-18T08:14:52.330Z,1.60
2022-11-18T08:15:52.373Z,1.40
2022-11-18T08:16:52.324Z,1.50
2022-11-18T08:17:52.330Z,1.50
2022-11-18T08:18:52.317Z,1.40
2022-11-18T08:19:52.299Z,1.40
2022-11-18T08:20:52.289Z,1.60
2022-11-18T08:21:52.283Z,1.60
2022-11-18T08:22:52.285Z,1.40
2022-11-18T08:23:52.271Z,1.50
2022-11-18T08:24:52.266Z,1.40
2022-11-18T08:25:52.256Z,1.70
2022-11-18T08:26:52.210Z,1.60
2022-11-18T08:27:52.210Z,1.60
2022-11-18T08:28:52.281Z,1.30
2022-11-18T08:29:52.185Z,1.40
2022-11-18T08:30:52.175Z,1.70
2022-11-18T08:31:52.179Z,1.50
2022-11-18T08:32:52.139Z,1.70
2022-11-18T08:33:52.150Z,1.50
2022-11-18T08:34:52.123Z,1.60
2022-11-18T08:35:52.127Z,1.60
2022-11-18T08:36:52.095Z,1.70
2022-11-18T08:37:52.083Z,1.80
2022-11-18T08:38:52.061Z,1.60
2022-11-18T08:39:52.065Z,1.80
2022-11-18T08:40:52.039Z,1.60
2022-11-18T08:41:52.059Z,1.60
2022-11-18T08:42:52.016Z,1.60
2022-11-18T08:43:52.022Z,1.60
2022-11-18T08:44:51.995Z,1.70
2022-11-18T08:45:52.030Z,1.60
2022-11-18T08:46:51.994Z,1.70
2022-11-18T08:47:51.980Z,1.80
2022-11-18T08:48:51.946Z,1.60
2022-11-18T08:49:51.956Z,1.70
2022-11-18T08:50:51.961Z,1.90
2022-11-18T08:51:51.925Z,1.40
2022-11-18T08:52:51.916Z,1.60
2022-11-18T08:53:51.907Z,1.60
2022-11-18T08:54:51.896Z,1.60
2022-11-18T08:55:56.896Z,1.70
2022-11-18T08:56:52.868Z,1.80
2022-11-18T08:57:51.873Z,1.60
2022-11-18T08:58:51.835Z,1.80
2022-11-18T08:59:51.846Z,1.50
2022-11-18T09:00:51.823Z,1.70
2022-11-18T09:01:51.865Z,2.00
2022-11-18T09:02:52.711Z,1.70
2022-11-18T09:03:51.812Z,1.70
2022-11-18T09:04:51.781Z,1.60
2022-11-18T09:05:51.790Z,1.60
2022-11-18T09:06:51.740Z,1.80
2022-11-18T09:07:51.768Z,1.90
2022-11-18T09:08:51.713Z,1.70
2022-11-18T09:09:51.741Z,1.50
2022-11-18T09:10:51.709Z,1.80
2022-11-18T09:11:51.717Z,1.80
2022-11-18T09:12:51.673Z,1.80
2022-11-18T09:15:12.952Z,1.90
2022-11-18T09:15:52.675Z,1.90
2022-11-18T09:16:51.633Z,2.10
2022-11-18T09:17:51.673Z,1.90
2022-11-18T09:18:51.603Z,2.00
2022-11-18T09:19:51.708Z,1.90
2022-11-18T09:20:51.627Z,1.90
2022-11-18T09:21:51.588Z,1.80
2022-11-18T09:22:51.558Z,1.90
2022-11-18T09:23:51.559Z,2.10
2022-11-18T09:24:51.544Z,2.00
2022-11-18T09:25:51.543Z,2.00
2022-11-18T09:26:51.520Z,1.80
2022-11-18T09:27:51.511Z,2.10
2022-11-18T09:28:51.481Z,1.90
2022-11-18T09:29:51.496Z,2.30
2022-11-18T09:30:51.505Z,2.00
2022-11-18T09:31:51.477Z,2.00
2022-11-18T09:32:51.459Z,2.00
2022-11-18T09:33:51.468Z,1.80
2022-11-18T09:34:51.416Z,1.70
2022-11-18T09:35:51.444Z,1.80
2022-11-18T09:36:51.458Z,1.50
2022-11-18T09:37:51.420Z,1.80
2022-11-18T09:38:53.135Z,1.90
2022-11-18T09:39:51.376Z,1.70
2022-11-18T09:40:51.345Z,1.80
2022-11-18T09:41:51.364Z,1.70
2022-11-18T09:42:51.328Z,1.90
2022-11-18T09:43:51.336Z,2.10
2022-11-18T09:44:51.322Z,1.80
2022-11-18T09:45:51.323Z,2.10
2022-11-18T09:46:51.315Z,2.00
2022-11-18T09:47:51.266Z,1.70
2022-11-18T09:48:51.267Z,1.70
2022-11-18T09:49:51.307Z,1.90
2022-11-18T09:50:51.416Z,1.80
2022-11-18T09:51:51.233Z,1.70
2022-11-18T09:52:51.214Z,1.50
2022-11-18T09:53:51.206Z,1.70
2022-11-18T09:54:51.179Z,1.50
2022-11-18T09:55:51.189Z,1.60
2022-11-18T09:56:51.265Z,1.70
2022-11-18T09:57:51.158Z,1.80
2022-11-18T09:58:51.226Z,1.60
2022-11-18T09:59:51.206Z,1.60
2022-11-18T10:00:51.108Z,1.70
2022-11-18T10:01:51.212Z,1.70
2022-11-18T10:02:51.088Z,1.60
2022-11-18T10:03:51.088Z,1.70
2022-11-18T10:04:51.064Z,1.70
2022-11-18T10:05:51.106Z,1.70
2022-11-18T10:06:51.044Z,2.10
2022-11-18T10:07:51.048Z,1.80
2022-11-18T10:08:51.025Z,1.70
2022-11-18T10:09:51.048Z,1.70
2022-11-18T10:10:50.998Z,1.70
2022-11-18T10:11:52.228Z,1.60
2022-11-18T10:12:50.992Z,1.70
2022-11-18T10:13:50.968Z,1.90
2022-11-18T10:14:50.956Z,1.60
2022-11-18T10:15:50.964Z,2.00
2022-11-18T10:16:56.614Z,2.00
2022-11-18T10:17:51.914Z,1.90
2022-11-18T10:19:00.357Z,1.70
2022-11-18T10:19:51.918Z,1.70
2022-11-18T10:20:50.883Z,1.60
2022-11-18T10:21:50.900Z,1.60
2022-11-18T10:22:50.868Z,1.90
2022-11-18T10:23:50.852Z,1.60
2022-11-18T10:24:50.825Z,1.70
2022-11-18T10:25:50.832Z,1.50
2022-11-18T10:26:50.807Z,2.00
2022-11-18T10:27:50.860Z,1.80
2022-11-18T10:28:50.778Z,1.80
2022-11-18T10:29:50.789Z,1.90
2022-11-18T10:30:50.758Z,1.70
2022-11-18T10:31:50.759Z,1.40
2022-11-18T10:32:50.776Z,1.50
2022-11-18T10:33:50.741Z,1.50
2022-11-18T10:34:50.704Z,1.50
2022-11-18T10:35:50.713Z,1.40
2022-11-18T10:36:50.681Z,1.80
2022-11-18T10:38:07.251Z,1.50
2022-11-18T10:38:51.668Z,1.60
2022-11-18T10:39:50.675Z,1.80
2022-11-18T10:40:50.637Z,1.70
2022-11-18T10:41:50.646Z,1.80
2022-11-18T10:42:50.635Z,1.60
2022-11-18T10:43:50.615Z,1.50
2022-11-18T10:44:50.587Z,1.60
2022-11-18T10:45:50.601Z,1.50
2022-11-18T10:46:50.570Z,1.30
2022-11-18T10:47:50.570Z,1.40
2022-11-18T10:48:50.570Z,1.50
2022-11-18T10:49:50.551Z,1.30
2022-11-18T10:50:55.251Z,1.60
2022-11-18T10:51:51.566Z,1.30
2022-11-18T10:52:50.536Z,1.40
2022-11-18T10:53:50.506Z,1.50
2022-11-18T10:54:50.490Z,1.20
2022-11-18T10:55:50.473Z,1.40
2022-11-18T10:56:56.431Z,1.30
2022-11-18T10:57:51.459Z,1.40
2022-11-18T10:58:50.448Z,1.60
2022-11-18T10:59:50.436Z,1.50
2022-11-18T11:00:50.444Z,1.50
2022-11-18T11:01:50.485Z,1.50
2022-11-18T11:02:50.384Z,1.50
2022-11-18T11:03:50.393Z,1.40
2022-11-18T11:04:50.374Z,1.40
2022-11-18T11:05:50.376Z,1.50
2022-11-18T11:06:50.362Z,1.50
2022-11-18T11:07:50.387Z,1.30
2022-11-18T11:08:50.333Z,1.30
2022-11-18T11:09:50.394Z,1.30
2022-11-18T11:10:52.768Z,1.20
2022-11-18T11:11:50.422Z,1.50
2022-11-18T11:12:50.418Z,1.40
2022-11-18T11:13:50.396Z,1.30
2022-11-18T11:14:50.282Z,1.30
2022-11-18T11:15:50.323Z,1.30
2022-11-18T11:16:50.393Z,1.40
2022-11-18T11:17:50.531Z,1.30
2022-11-18T11:18:50.332Z,1.50
2022-11-18T11:19:50.340Z,1.40
2022-11-18T11:20:50.298Z,1.30
2022-11-18T11:21:51.101Z,1.40
2022-11-18T11:22:50.299Z,1.50
2022-11-18T11:23:50.201Z,1.50
2022-11-18T11:24:50.292Z,1.40
2022-11-18T11:28:51.091Z,1.50
2022-11-18T11:29:50.132Z,1.70
2022-11-18T11:30:50.148Z,1.50
2022-11-18T11:31:50.284Z,1.20
2022-11-18T11:32:50.014Z,1.10
2022-11-18T11:33:50.068Z,1.20
2022-11-18T11:34:49.997Z,1.30
2022-11-18T11:35:50.005Z,1.10
2022-11-18T11:36:49.977Z,1.40
2022-11-18T11:37:49.982Z,1.10
2022-11-18T11:38:49.956Z,1.30
2022-11-18T11:39:49.999Z,1.20
2022-11-18T11:40:49.945Z,1.10
2022-11-18T11:41:49.924Z,1.20
2022-11-18T11:42:49.914Z,1.20
2022-11-18T11:43:49.932Z,1.10
2022-11-18T11:44:49.890Z,1.20
2022-11-18T11:45:49.903Z,1.60
2022-11-18T11:46:49.908Z,1.20
2022-11-18T11:47:49.860Z,1.10
2022-11-18T11:48:49.847Z,1.10
2022-11-18T11:49:49.862Z,1.20
2022-11-18T11:50:57.106Z,1.30
2022-11-18T11:51:50.929Z,1.20
2022-11-18T11:52:49.801Z,1.10
2022-11-18T11:53:49.815Z,1.20
2022-11-18T11:54:49.767Z,1.40
2022-11-18T11:55:49.796Z,1.10
2022-11-18T11:56:49.763Z,1.20
2022-11-18T11:57:49.745Z,1.20
2022-11-18T11:58:49.723Z,1.10
2022-11-18T11:59:49.750Z,1.40
2022-11-18T12:00:49.693Z,1.10
2022-11-18T12:01:49.705Z,1.10
2022-11-18T12:02:49.734Z,0.90
2022-11-18T12:03:52.168Z,1.10
2022-11-18T12:04:49.646Z,1.00
2022-11-18T12:05:49.669Z,1.00
2022-11-18T12:06:49.638Z,0.90
2022-11-18T12:07:49.690Z,1.00
2022-11-18T12:08:49.631Z,1.00
2022-11-18T12:09:49.603Z,1.00
2022-11-18T12:10:49.599Z,1.00
2022-11-18T12:11:49.570Z,1.00
2022-11-18T12:12:49.603Z,0.90
2022-11-18T12:13:49.567Z,1.00
2022-11-18T12:14:49.571Z,0.80
2022-11-18T12:15:49.518Z,0.70
2022-11-18T12:16:49.539Z,0.90
2022-11-18T12:17:49.505Z,0.80
2022-11-18T12:18:49.500Z,0.80
2022-11-18T12:19:49.495Z,0.70
2022-11-18T12:20:49.504Z,0.80
2022-11-18T12:21:49.460Z,0.60
2022-11-18T12:22:49.482Z,0.50
2022-11-18T12:23:49.433Z,0.40
2022-11-18T12:24:49.438Z,0.60
2022-11-18T12:25:49.409Z,0.50
2022-11-18T12:26:49.453Z,0.50
2022-11-18T12:27:49.407Z,0.50
2022-11-18T12:28:49.402Z,0.40
2022-11-18T12:29:49.380Z,0.40
2022-11-18T12:30:49.370Z,0.50
2022-11-18T12:31:49.340Z,0.40
2022-11-18T12:32:49.403Z,0.40
2022-11-18T12:33:49.337Z,0.50
2022-11-18T12:34:49.453Z,0.40
2022-11-18T12:35:49.313Z,0.50
2022-11-18T12:36:49.307Z,0.40
2022-11-18T12:37:49.262Z,0.50
2022-11-18T12:38:49.315Z,0.50
2022-11-18T12:39:49.244Z,0.40
2022-11-18T12:40:52.949Z,0.40
2022-11-18T12:41:49.235Z,0.30
2022-11-18T12:42:49.259Z,0.40
2022-11-18T12:43:49.225Z,0.40
2022-11-18T12:44:49.224Z,0.50
2022-11-18T12:45:49.210Z,0.40
2022-11-18T12:46:49.174Z,0.50
2022-11-18T12:47:49.161Z,0.40
2022-11-18T12:48:49.163Z,0.40
2022-11-18T12:49:49.140Z,0.40
2022-11-18T12:50:49.182Z,0.40
2022-11-18T12:51:49.119Z,0.40
2022-11-18T12:52:49.120Z,0.40
2022-11-18T12:53:49.122Z,0.30
2022-11-18T12:54:49.104Z,0.40
2022-11-18T12:55:49.085Z,0.40
2022-11-18T12:56:49.106Z,0.30
2022-11-18T12:57:49.039Z,0.50
2022-11-18T12:58:49.041Z,0.30
2022-11-18T12:59:49.029Z,0.40
2022-11-18T13:00:49.073Z,0.40
2022-11-18T13:01:49.001Z,0.40
2022-11-18T13:02:49.029Z,0.30
2022-11-18T13:03:48.977Z,0.30
2022-11-18T13:04:53.097Z,0.30
2022-11-18T13:05:49.006Z,0.40
2022-11-18T13:06:48.952Z,0.60
2022-11-18T13:07:48.924Z,0.40
2022-11-18T13:08:48.957Z,0.50
2022-11-18T13:09:48.918Z,0.40
2022-11-18T13:10:54.502Z,0.40
2022-11-18T13:11:49.919Z,0.30
2022-11-18T13:12:48.895Z,0.40
2022-11-18T13:13:48.904Z,0.40
2022-11-18T13:14:48.857Z,0.40
2022-11-18T13:15:48.827Z,0.30
2022-11-18T13:16:48.833Z,0.30
2022-11-18T13:17:48.814Z,0.40
2022-11-18T13:18:48.825Z,0.40
2022-11-18T13:19:48.800Z,0.40
2022-11-18T13:20:48.783Z,0.50
2022-11-18T13:21:48.774Z,0.40
2022-11-18T13:22:48.779Z,0.70